Time;durP1;ratioP1;P1;durP2;ratioP2;P2;SDS_P1;SDS_P2;PMS_P1;PMS_P2;Temp;Humidity;BMP_temperature;BMP_pressure;BME280_temperature;BME280_humidity;BME280_pressure;Samples;Min_cycle;Max_cycle;Signal;HPM_P1;HPM_P2
2022/02/04 00:08:03;;;;;;;16.93;8.47;;;;;;;-5.61;100.00;100083.45;1733748;82;20987;-65
2022/02/04 00:21:19;;;;;;;19.13;8.20;;;;;;;-5.87;100.00;100090.02;1689628;84;21026;-66
2022/02/04 00:23:26;;;;;;;;;;;;;;;-5.87;100.00;100087.87;1683387;84;21109;-66
2022/02/04 00:26:04;;;;;;;15.03;6.73;;;;;;;-5.89;100.00;100085.25;1686080;83;21111;-67
2022/02/04 00:31:29;;;;;;;20.73;8.67;;;;;;;-5.84;100.00;100077.30;1686514;85;21121;-66
2022/02/04 00:33:53;;;;;;;16.37;7.53;;;;;;;-5.81;100.00;100073.52;1685106;82;21073;-66
2022/02/04 00:36:27;;;;;;;19.33;8.73;;;;;;;-5.79;100.00;100075.72;1686043;85;21223;-66
2022/02/04 00:38:53;;;;;;;18.40;7.83;;;;;;;-5.75;100.00;100069.86;1685549;85;21692;-66
2022/02/04 00:41:21;;;;;;;17.87;8.10;;;;;;;-5.70;100.00;100070.84;1685804;85;21085;-66
2022/02/04 00:43:48;;;;;;;18.97;8.87;;;;;;;-5.69;100.00;100075.13;1685744;85;21113;-67
2022/02/04 00:46:19;;;;;;;16.57;8.03;;;;;;;-5.65;100.00;100075.23;1685868;85;21066;-66
2022/02/04 00:48:50;;;;;;;18.57;8.97;;;;;;;-5.62;100.00;100072.75;1685916;85;21098;-66
2022/02/04 00:57:11;;;;;;;19.80;8.53;;;;;;;-5.53;100.00;100081.97;1686110;85;21074;-66
2022/02/04 01:26:15;;;;;;;16.90;8.57;;;;;;;-5.41;100.00;100088.70;1733730;82;21081;-65
2022/02/04 01:28:43;;;;;;;20.33;8.63;;;;;;;-5.40;100.00;100086.61;1733941;82;21051;-66
2022/02/04 01:31:13;;;;;;;19.47;8.17;;;;;;;-5.41;100.00;100084.86;1733232;82;22083;-65
2022/02/04 01:33:41;;;;;;;16.23;7.63;;;;;;;-5.40;100.00;100085.33;1734508;81;21090;-66
2022/02/04 01:36:07;;;;;;;19.10;8.13;;;;;;;-5.39;100.00;100081.92;1747782;82;21021;-67
2022/02/04 01:38:34;;;;;;;15.73;7.30;;;;;;;-5.40;100.00;100077.63;1747702;82;21093;-66
2022/02/04 01:41:01;;;;;;;14.70;7.80;;;;;;;-5.41;100.00;100080.14;1747361;82;21136;-68
2022/02/04 01:43:27;;;;;;;16.23;8.43;;;;;;;-5.37;100.00;100082.83;1747541;82;21990;-65
2022/02/04 01:46:00;;;;;;;16.97;7.70;;;;;;;-5.37;100.00;100087.97;1747618;82;21116;-66
2022/02/04 01:48:26;;;;;;;14.03;6.93;;;;;;;-5.38;100.00;100088.81;1737126;81;21105;-64
2022/02/04 01:50:53;;;;;;;19.83;8.60;;;;;;;-5.37;100.00;100084.53;1747598;82;21014;-66
2022/02/04 01:53:28;;;;;;;19.60;8.43;;;;;;;-5.36;100.00;100093.96;1748057;82;21097;-66
2022/02/04 01:55:50;;;;;;;15.53;7.90;;;;;;;-5.35;100.00;100094.02;1746803;82;21030;-65
2022/02/04 01:58:17;;;;;;;16.47;7.87;;;;;;;-5.36;100.00;100087.16;1747471;82;21047;-65
2022/02/04 02:00:43;;;;;;;18.13;7.77;;;;;;;-5.37;100.00;100091.81;1747660;82;21085;-65
2022/02/04 02:03:10;;;;;;;16.00;7.90;;;;;;;-5.37;100.00;100090.53;1747812;82;21050;-66
2022/02/04 02:05:36;;;;;;;16.70;7.50;;;;;;;-5.37;100.00;100094.80;1720521;82;21088;-65
2022/02/04 02:08:08;;;;;;;15.30;7.70;;;;;;;-5.35;100.00;100094.02;1747711;82;21069;-67
2022/02/04 02:10:36;;;;;;;13.67;7.20;;;;;;;-5.36;100.00;100092.29;1747510;82;21066;-66
2022/02/04 02:13:16;;;;;;;16.80;8.10;;;;;;;-5.37;100.00;100091.81;1736189;82;21074;-66
2022/02/04 02:45:58;;;;;;;17.07;7.27;;;;;;;-5.39;100.00;100108.88;1694304;84;21616;-66
2022/02/04 02:51:29;;;;;;;13.50;6.40;;;;;;;-5.41;100.00;100113.52;1693944;84;21110;-66
2022/02/04 02:59:09;;;;;;;16.17;6.80;;;;;;;-5.41;100.00;100114.38;1693926;84;21078;-65
2022/02/04 03:01:33;;;;;;;14.47;6.77;;;;;;;-5.41;100.00;100122.08;1694275;83;22146;-66
2022/02/04 03:04:06;;;;;;;14.47;7.20;;;;;;;-5.36;100.00;100120.53;1693825;84;22235;-67
2022/02/04 03:06:29;;;;;;;16.43;7.20;;;;;;;-5.33;100.00;100119.73;1693694;84;21642;-66
2022/02/04 03:08:57;;;;;;;13.97;7.50;;;;;;;-5.31;100.00;100116.38;1693918;83;21133;-66
2022/02/04 03:11:23;;;;;;;15.07;6.90;;;;;;;-5.31;100.00;100113.81;1693941;84;21099;-66
2022/02/04 03:13:50;;;;;;;14.10;6.40;;;;;;;-5.33;100.00;100110.33;1693787;84;21231;-66
2022/02/04 03:16:18;;;;;;;13.27;6.83;;;;;;;-5.31;100.00;100109.96;1694154;83;21103;-64
2022/02/04 03:18:48;;;;;;;14.20;7.00;;;;;;;-5.31;100.00;100116.38;1694007;84;21024;-67
2022/02/04 03:21:16;;;;;;;11.70;6.30;;;;;;;-5.31;100.00;100112.53;1693718;84;21044;-65
2022/02/04 03:23:46;;;;;;;12.23;6.23;;;;;;;-5.30;100.00;100119.39;1693731;84;21098;-66
2022/02/04 03:28:44;;;;;;;13.13;6.20;;;;;;;-5.28;100.00;100120.30;1667017;84;21087;-65
2022/02/04 03:31:10;;;;;;;12.50;6.40;;;;;;;-5.25;100.00;100113.51;1693804;84;21115;-66
2022/02/04 03:33:38;;;;;;;12.17;6.33;;;;;;;-5.31;100.00;100116.38;1694243;84;21651;-65
2022/02/04 03:36:05;;;;;;;13.40;6.27;;;;;;;-5.32;100.00;100122.32;1725441;82;21002;-66
2022/02/04 03:38:31;;;;;;;15.33;7.03;;;;;;;-5.32;100.00;100117.61;1733713;82;21844;-65
2022/02/04 03:40:58;;;;;;;15.27;6.93;;;;;;;-5.33;100.00;100111.61;1733328;82;21057;-65
2022/02/04 03:43:24;;;;;;;13.10;6.27;;;;;;;-5.33;100.00;100118.03;1733538;82;21109;-66
2022/02/04 03:45:51;;;;;;;12.30;5.80;;;;;;;-5.35;100.00;100108.13;1733867;82;21031;-67
2022/02/04 03:49:29;;;;;;;12.73;6.47;;;;;;;-5.31;100.00;100115.52;1881690;75;23903;-65
2022/02/04 03:51:56;;;;;;;11.20;6.57;;;;;;;-5.35;100.00;100105.56;1858020;77;21084;-66
2022/02/04 03:54:22;;;;;;;14.30;6.23;;;;;;;-5.36;100.00;100112.83;1858293;77;21488;-65
2022/02/04 03:56:49;;;;;;;13.83;7.00;;;;;;;-5.36;100.00;100111.93;1857885;77;21099;-65
2022/02/04 03:59:17;;;;;;;14.07;7.40;;;;;;;-5.35;100.00;100108.13;1852143;77;20951;-65
2022/02/04 04:01:44;;;;;;;13.17;7.10;;;;;;;-5.38;100.00;100109.34;1850875;77;21334;-65
2022/02/04 04:04:10;;;;;;;15.53;7.50;;;;;;;-5.36;100.00;100115.39;1851115;77;21062;-65
2022/02/04 04:06:37;;;;;;;13.83;6.90;;;;;;;-5.39;100.00;100116.57;1851304;77;21488;-67
2022/02/04 04:09:04;;;;;;;13.47;6.87;;;;;;;-5.41;100.00;100122.08;1850642;77;21013;-65
2022/02/04 04:11:31;;;;;;;11.57;6.30;;;;;;;-5.40;100.00;100128.97;1850867;77;21553;-65
2022/02/04 04:13:57;;;;;;;13.40;6.90;;;;;;;-5.41;100.00;100132.34;1850841;77;21069;-66
2022/02/04 04:16:24;;;;;;;18.47;7.93;;;;;;;-5.36;100.00;100132.47;1851155;77;21051;-65
2022/02/04 04:18:50;;;;;;;15.03;7.17;;;;;;;-5.38;100.00;100133.73;1850981;77;21127;-65
2022/02/04 04:21:17;;;;;;;14.47;7.43;;;;;;;-5.37;100.00;100135.45;1851157;77;21046;-65
2022/02/04 04:23:43;;;;;;;12.20;6.67;;;;;;;-5.36;99.93;100137.59;1850988;77;21054;-66
2022/02/04 04:26:11;;;;;;;13.43;6.33;;;;;;;-5.40;100.00;100126.39;1850756;76;21094;-65
2022/02/04 04:28:38;;;;;;;14.60;7.07;;;;;;;-5.42;98.96;100132.32;1851081;77;21046;-66
2022/02/04 04:31:05;;;;;;;12.43;6.83;;;;;;;-5.40;100.00;100134.09;1851297;77;21451;-66
2022/02/04 04:33:31;;;;;;;13.83;6.97;;;;;;;-5.39;100.00;100133.25;1843796;77;21046;-66
2022/02/04 04:35:57;;;;;;;13.50;6.67;;;;;;;-5.39;100.00;100133.25;1836921;76;22235;-66
2022/02/04 04:38:37;;;;;;;12.20;6.63;;;;;;;-5.39;100.00;100122.98;1830238;77;21038;-65
2022/02/04 04:44:29;;;;;;;16.03;6.80;;;;;;;-5.37;100.00;100136.73;1849712;77;21119;-66
2022/02/04 04:46:34;;;;;;;14.00;7.33;;;;;;;-5.37;100.00;100139.30;1831116;77;21093;-66
2022/02/04 05:29:41;;;;;;;18.43;7.93;;;;;;;-6.40;100.00;100174.77;1782409;78;21041;-66
2022/02/04 05:32:07;;;;;;;19.83;7.40;;;;;;;-6.42;100.00;100178.11;1779591;78;21056;-66
2022/02/04 05:34:34;;;;;;;19.37;8.20;;;;;;;-6.47;100.00;100177.09;1772501;78;21112;-66
2022/02/04 05:37:05;;;;;;;14.10;7.03;;;;;;;-6.55;100.00;100175.16;1783182;78;21974;-66
2022/02/04 05:39:36;;;;;;;19.67;8.47;;;;;;;-6.59;100.00;100179.72;1780786;78;21534;-66
2022/02/04 05:41:58;;;;;;;16.60;7.67;;;;;;;-6.66;100.00;100176.50;1784046;79;21029;-66
2022/02/04 05:44:24;;;;;;;18.03;8.53;;;;;;;-6.67;100.00;100183.73;1782712;78;21545;-65
2022/02/04 05:47:05;;;;;;;15.60;7.93;;;;;;;-6.70;100.00;100176.34;1790648;78;21060;-66
2022/02/04 05:49:25;;;;;;;15.40;7.83;;;;;;;-6.73;100.00;100177.53;1767314;79;21570;-66
2022/02/04 05:52:20;;;;;;;16.57;8.37;;;;;;;-6.74;100.00;100185.61;1749590;79;21037;-66
2022/02/04 05:55:08;;;;;;;19.33;9.13;;;;;;;-6.80;100.00;100180.30;1748236;81;21081;-67
2022/02/04 05:57:38;;;;;;;18.10;8.30;;;;;;;-6.89;100.00;100181.27;1749638;79;22206;-66
2022/02/04 06:03:24;;;;;;;37.70;14.30;;;;;;;-7.07;100.00;100179.80;1799135;77;21786;-66
2022/02/04 06:05:18;;;;;;;37.07;14.57;;;;;;;-7.07;100.00;100186.20;1793411;79;21041;-66
2022/02/04 06:10:50;;;;;;;37.77;12.87;;;;;;;-7.14;100.00;100199.61;1811472;79;21624;-66
2022/02/04 06:23:35;;;;;;;24.30;10.67;;;;;;;-7.08;100.00;100202.39;1735881;79;21643;-66
2022/02/04 06:26:01;;;;;;;24.03;10.40;;;;;;;-7.09;100.00;100202.33;1793061;79;21114;-66
2022/02/04 06:28:28;;;;;;;22.53;9.73;;;;;;;-7.07;100.00;100201.56;1794704;79;21427;-66
2022/02/04 06:30:54;;;;;;;25.20;10.53;;;;;;;-7.04;100.00;100205.53;1778422;80;21023;-66
2022/02/04 06:33:22;;;;;;;20.33;10.03;;;;;;;-7.02;100.00;100210.27;1792316;79;21028;-66
2022/02/04 06:35:49;;;;;;;36.87;15.93;;;;;;;-6.89;100.00;100200.47;1778655;80;21024;-66
2022/02/04 06:38:15;;;;;;;17.80;8.20;;;;;;;-6.36;100.00;100197.53;1778860;79;21612;-66
2022/02/04 06:40:42;;;;;;;21.30;9.37;;;;;;;-5.54;100.00;100197.01;1749285;80;21099;-67
2022/02/04 06:43:09;;;;;;;19.17;9.80;;;;;;;-4.71;100.00;100197.55;1791097;79;21110;-67
2022/02/04 06:45:37;;;;;;;19.62;9.53;;;;;;;-3.84;100.00;100187.62;1797516;79;21027;-67
2022/02/04 06:48:04;;;;;;;15.58;8.45;;;;;;;-2.98;99.77;100190.22;1811002;79;21469;-64
2022/02/04 06:50:30;;;;;;;16.45;8.98;;;;;;;-2.11;98.55;100184.81;1799898;79;21028;-65
2022/02/04 06:52:57;;;;;;;16.73;8.75;;;;;;;-1.46;90.63;100182.69;1778368;80;21480;-65
2022/02/04 06:55:23;;;;;;;16.10;8.98;;;;;;;-0.86;88.34;100189.83;1778460;80;21060;-65
2022/02/04 06:57:49;;;;;;;15.95;8.55;;;;;;;-0.28;85.85;100180.42;1797362;77;21108;-66
2022/02/04 07:00:18;;;;;;;18.87;9.53;;;;;;;0.37;81.57;100181.73;1749904;80;21638;-65
2022/02/04 07:02:46;;;;;;;17.32;10.35;;;;;;;0.98;81.70;100182.40;1788491;77;21057;-66
2022/02/04 07:05:14;;;;;;;15.95;9.28;;;;;;;1.62;77.96;100181.64;1797289;77;21535;-66
2022/02/04 07:07:47;;;;;;;16.10;9.10;;;;;;;2.17;73.17;100180.29;1802109;77;21045;-65
2022/02/04 07:10:28;;;;;;;15.32;9.13;;;;;;;2.37;68.39;100187.16;1783814;77;20975;-65
2022/02/04 07:13:03;;;;;;;15.72;8.93;;;;;;;2.67;65.65;100180.58;1785887;77;21037;-66
2022/02/04 07:15:48;;;;;;;15.93;9.28;;;;;;;3.09;61.63;100182.98;1781026;77;21026;-66
2022/02/04 07:19:45;;;;;;;18.42;9.53;;;;;;;3.43;60.46;100174.52;1754718;80;21076;-65
2022/02/04 07:20:31;;;;;;;19.10;9.05;;;;;;;3.96;57.92;100173.20;1792368;77;21002;-65
2022/02/04 07:22:58;;;;;;;20.92;11.93;;;;;;;4.34;56.17;100175.85;1807058;77;21577;-66
2022/02/04 07:25:24;;;;;;;14.15;8.28;;;;;;;4.64;55.94;100171.17;1810779;79;21047;-65
2022/02/04 07:27:51;;;;;;;16.45;8.75;;;;;;;5.04;53.08;100168.06;1786739;78;21494;-65
2022/02/04 07:30:18;;;;;;;16.42;9.10;;;;;;;5.48;52.47;100163.94;1782376;78;21539;-65
2022/02/04 07:32:57;;;;;;;12.63;8.15;;;;;;;5.68;51.32;100169.70;1784515;79;21580;-64
2022/02/04 07:35:30;;;;;;;15.68;9.10;;;;;;;5.98;49.11;100164.88;1745950;80;21728;-65
2022/02/04 07:43:13;;;;;;;12.35;7.75;;;;;;;6.64;46.69;100170.16;1781098;78;21994;-65
2022/02/04 07:45:40;;;;;;;11.33;7.30;;;;;;;6.94;45.66;100164.72;1795607;78;21024;-65
2022/02/04 07:48:07;;;;;;;12.98;8.23;;;;;;;7.08;42.52;100152.63;1797219;79;21628;-66
2022/02/04 07:50:33;;;;;;;13.18;8.00;;;;;;;7.21;43.30;100153.23;1762806;80;21061;-65
2022/02/04 07:53:00;;;;;;;13.28;8.15;;;;;;;7.52;42.22;100156.01;1809589;79;21037;-65
2022/02/04 07:55:27;;;;;;;15.53;8.70;;;;;;;7.64;40.59;100153.95;1810226;79;22228;-65
2022/02/04 07:57:53;;;;;;;14.30;8.13;;;;;;;7.63;41.28;100151.80;1809645;79;21142;-65
2022/02/04 08:00:20;;;;;;;13.65;8.13;;;;;;;7.61;39.48;100156.20;1810219;79;21045;-65
2022/02/04 08:02:47;;;;;;;10.95;7.22;;;;;;;7.52;40.21;100155.13;1805760;79;21549;-65
2022/02/04 08:05:15;;;;;;;14.23;7.90;;;;;;;7.46;40.05;100150.05;1748846;80;21051;-65
2022/02/04 08:07:54;;;;;;;11.53;7.62;;;;;;;7.60;40.37;100146.63;1765174;81;21493;-65
2022/02/04 08:10:29;;;;;;;12.13;7.85;;;;;;;8.04;40.42;100145.09;1778190;79;21064;-65
2022/02/04 08:26:17;;;;;;;11.50;7.85;;;;;;;9.41;36.27;100138.94;1778274;79;21052;-65
2022/02/04 08:28:54;;;;;;;10.95;7.62;;;;;;;9.54;35.38;100133.27;1753566;79;21063;-65
2022/02/04 08:50:28;;;;;;;10.68;6.08;;;;;;;10.32;33.06;100115.29;1737143;80;21036;-66
2022/02/04 09:00:43;;;;;;;10.43;6.17;;;;;;;10.73;31.13;100120.80;1814043;79;21786;-66
2022/02/04 09:03:13;;;;;;;7.40;5.45;;;;;;;10.85;31.29;100125.59;1811677;79;21504;-67
2022/02/04 09:05:35;;;;;;;8.78;5.90;;;;;;;10.84;31.38;100131.80;1811473;79;21454;-66
2022/02/04 09:10:39;;;;;;;;;;;;;;;10.99;31.20;100124.59;1784761;80;21020;-66
2022/02/04 09:18:38;;;;;;;9.55;6.47;;;;;;;10.82;30.39;100121.77;1781654;80;21067;-66
2022/02/04 09:23:34;;;;;;;9.33;5.60;;;;;;;11.13;29.50;100124.06;1790415;79;21059;-66
2022/02/04 09:26:06;;;;;;;9.15;5.53;;;;;;;11.37;28.71;100119.61;1772879;79;21297;-66
2022/02/04 09:28:29;;;;;;;11.18;5.87;;;;;;;11.47;27.88;100113.02;1780826;79;21110;-66
2022/02/04 09:30:55;;;;;;;7.25;5.47;;;;;;;11.63;28.03;100115.03;1782499;79;20993;-66
2022/02/04 09:33:22;;;;;;;8.13;5.60;;;;;;;11.66;28.48;100117.53;1786070;79;21122;-66
2022/02/04 09:35:48;;;;;;;7.50;5.35;;;;;;;11.88;27.99;100115.75;1800802;79;21024;-66
2022/02/04 09:38:14;;;;;;;12.53;7.03;;;;;;;11.60;26.96;100110.75;1800267;79;21112;-66
2022/02/04 09:40:41;;;;;;;6.58;4.85;;;;;;;11.34;27.63;100106.52;1788935;79;21040;-67
2022/02/04 09:43:08;;;;;;;15.68;7.22;;;;;;;11.07;28.28;100106.73;1806814;79;21053;-67
2022/02/04 09:45:36;;;;;;;15.10;6.67;;;;;;;11.02;30.57;100106.06;1807265;79;21066;-66
2022/02/04 09:48:07;;;;;;;8.88;5.47;;;;;;;10.99;28.13;100105.30;1807205;79;21049;-66
2022/02/04 09:50:36;;;;;;;9.33;5.17;;;;;;;11.01;30.06;100104.32;1729419;82;26124;-66
2022/02/04 10:10:47;;;;;;;9.55;4.85;;;;;;;11.67;29.93;100095.53;1787315;79;21091;-66
2022/02/04 10:15:26;;;;;;;9.73;4.50;;;;;;;12.00;28.63;100109.55;1808315;79;21099;-66
2022/02/04 10:17:40;;;;;;;11.12;5.10;;;;;;;11.81;28.73;100102.39;1800363;77;21827;-66
2022/02/04 10:20:07;;;;;;;7.92;4.75;;;;;;;11.71;27.24;100103.25;1785290;77;21327;-66
2022/02/04 10:22:35;;;;;;;7.33;4.53;;;;;;;11.73;27.75;100101.84;1803385;77;21057;-66
2022/02/04 10:25:12;;;;;;;7.22;4.83;;;;;;;11.70;26.90;100088.80;1783707;78;21118;-66
2022/02/04 10:27:40;;;;;;;6.45;4.42;;;;;;;11.61;27.19;100093.14;1778098;78;21033;-67
2022/02/04 10:30:10;;;;;;;6.03;4.30;;;;;;;11.53;27.21;100098.74;1783056;80;21116;-66
2022/02/04 10:32:41;;;;;;;7.50;5.00;;;;;;;11.51;27.28;100088.25;1814066;79;21042;-67
2022/02/04 10:35:28;;;;;;;8.43;5.00;;;;;;;11.31;27.06;100088.20;1788678;79;21038;-67
2022/02/04 10:40:55;;;;;;;6.35;4.62;;;;;;;11.46;27.55;100097.28;1776330;79;21111;-67
2022/02/04 10:43:51;;;;;;;6.40;4.20;;;;;;;11.61;27.28;100083.91;1772962;78;21522;-66
2022/02/04 10:49:05;;;;;;;6.92;4.47;;;;;;;11.62;26.79;100087.81;1781994;79;21092;-66
2022/02/04 10:59:40;;;;;;;8.68;4.30;;;;;;;12.34;26.01;100073.28;1768597;78;21073;-66
2022/02/04 11:02:13;;;;;;;5.75;4.28;;;;;;;12.17;26.07;100075.37;1764932;78;21661;-66
2022/02/04 11:05:01;;;;;;;6.97;4.50;;;;;;;12.14;25.61;100072.84;1762746;79;21052;-67
2022/02/04 11:10:03;;;;;;;7.33;4.75;;;;;;;11.91;26.58;100066.78;1777573;80;21195;-67
2022/02/04 11:35:10;;;;;;;10.93;5.70;;;;;;;12.08;27.67;100042.31;1769039;78;21615;-66
2022/02/04 11:44:31;;;;;;;8.48;5.10;;;;;;;11.62;26.73;100044.72;1768437;78;21036;-66
2022/02/04 11:52:50;;;;;;;7.85;5.05;;;;;;;10.82;27.80;100037.48;1776163;78;21149;-66
2022/02/04 11:55:17;;;;;;;8.63;5.42;;;;;;;10.64;28.69;100038.58;1668753;83;21028;-66
2022/02/04 11:58:00;;;;;;;9.95;6.00;;;;;;;10.42;29.77;100040.31;1680800;84;21073;-65
2022/02/04 12:00:31;;;;;;;10.30;6.55;;;;;;;10.45;28.10;100037.12;1681913;84;21066;-66
2022/02/04 12:02:57;;;;;;;7.50;4.55;;;;;;;10.66;29.00;100044.65;1686196;83;21543;-66
2022/02/04 12:05:27;;;;;;;9.55;6.28;;;;;;;10.46;28.84;100040.60;1680433;84;21900;-66
2022/02/04 12:07:57;;;;;;;;;;;;;;;10.31;28.19;100043.80;1677458;84;21109;-66
2022/02/04 12:10:33;;;;;;;8.55;4.72;;;;;;;10.36;29.19;100039.25;1673582;84;20245;-66
2022/02/04 12:15:47;;;;;;;11.12;6.60;;;;;;;10.36;28.45;100039.25;1676184;84;21054;-66
2022/02/04 12:18:18;;;;;;;9.00;6.05;;;;;;;10.27;31.42;100048.30;1688962;83;21087;-66
2022/02/04 12:20:53;;;;;;;10.18;5.87;;;;;;;10.41;29.39;100043.87;1691773;83;21052;-66
2022/02/04 12:23:41;;;;;;;11.05;6.40;;;;;;;10.27;28.45;100045.20;1683757;84;22186;-66
2022/02/04 12:26:29;;;;;;;9.78;6.03;;;;;;;10.19;30.24;100048.59;1699188;83;21075;-66
2022/02/04 12:29:01;;;;;;;10.20;5.80;;;;;;;9.97;29.14;100043.24;1692513;84;21147;-65
2022/02/04 12:31:38;;;;;;;11.00;6.25;;;;;;;9.78;29.18;100050.94;1695807;82;21822;-65
2022/02/04 12:34:14;;;;;;;8.65;5.35;;;;;;;9.59;31.13;100052.47;1693450;84;21539;-65
2022/02/04 12:36:46;;;;;;;10.53;5.70;;;;;;;9.40;29.46;100053.09;1687305;84;21103;-65
2022/02/04 12:39:25;;;;;;;9.25;5.90;;;;;;;9.27;29.71;100050.48;1680299;84;21095;-65
2022/02/04 12:42:01;;;;;;;10.18;6.78;;;;;;;8.79;35.39;100048.52;1679003;85;21560;-66
2022/02/04 12:44:34;;;;;;;9.53;6.10;;;;;;;8.87;31.17;100055.69;1680261;84;21112;-66
2022/02/04 12:47:04;;;;;;;12.15;6.72;;;;;;;8.84;30.96;100053.16;1683586;83;21135;-66
2022/02/04 12:49:34;;;;;;;10.10;6.00;;;;;;;8.71;33.44;100050.50;1682268;84;21603;-66
2022/02/04 12:52:41;;;;;;;9.25;5.58;;;;;;;8.51;31.54;100057.23;1683693;84;21071;-66
2022/02/04 12:54:50;;;;;;;9.38;5.55;;;;;;;8.45;32.65;100055.23;1709141;81;21070;-66
2022/02/04 13:00:09;;;;;;;7.25;4.90;;;;;;;8.15;31.79;100049.93;1731968;81;21030;-68
2022/02/04 13:08:19;;;;;;;7.55;4.42;;;;;;;7.61;32.64;100059.23;1723532;83;21097;-68
2022/02/04 13:10:45;;;;;;;7.72;4.72;;;;;;;7.56;36.45;100055.42;1723874;81;21766;-67
2022/02/04 13:13:16;;;;;;;6.70;4.10;;;;;;;7.63;32.87;100053.96;1736358;81;21357;-68
2022/02/04 13:15:43;;;;;;;7.22;4.40;;;;;;;7.61;32.19;100051.38;1745711;81;21074;-67
2022/02/04 13:18:15;;;;;;;11.25;5.67;;;;;;;7.50;36.74;100056.91;1749457;81;22238;-67
2022/02/04 13:20:45;;;;;;;6.83;4.83;;;;;;;7.39;33.09;100055.47;1729499;81;21094;-68
2022/02/04 13:23:19;;;;;;;7.58;4.65;;;;;;;7.35;33.64;100052.91;1747814;81;21208;-67
2022/02/04 13:25:49;;;;;;;6.20;3.85;;;;;;;7.30;34.57;100053.93;1742129;81;21042;-68
2022/02/04 13:28:24;;;;;;;6.40;3.47;;;;;;;7.09;31.80;100050.08;1723748;83;21051;-68
2022/02/04 13:31:07;;;;;;;6.95;4.55;;;;;;;6.96;33.40;100060.42;1735564;81;21070;-68
2022/02/04 13:33:43;;;;;;;6.87;3.98;;;;;;;6.74;35.68;100058.31;1743016;81;21046;-67
2022/02/04 13:38:55;;;;;;;7.55;4.58;;;;;;;6.31;33.89;100063.14;1723457;82;20991;-67
2022/02/04 13:46:54;;;;;;;7.55;4.47;;;;;;;4.77;36.67;100063.17;1747961;81;21610;-66
2022/02/04 13:52:02;;;;;;;8.33;4.62;;;;;;;3.89;37.55;100073.84;1753436;81;21065;-66
2022/02/04 13:55:23;;;;;;;6.90;3.77;;;;;;;3.49;44.38;100065.09;1733019;81;21594;-66
2022/02/04 13:57:22;;;;;;;7.05;3.50;;;;;;;3.06;39.27;100064.59;1714463;81;21050;-65
2022/02/04 14:00:00;;;;;;;;;;;;;;;2.55;39.57;100065.36;1713313;83;21022;-65
2022/02/04 14:02:27;;;;;;;7.12;3.25;;;;;;;2.00;42.15;100076.84;1723951;81;21533;-65
2022/02/04 14:04:58;;;;;;;5.85;3.27;;;;;;;1.63;42.57;100079.52;1729979;81;21518;-65
2022/02/04 14:07:47;;;;;;;7.85;3.50;;;;;;;1.28;41.53;100077.81;1723828;81;21132;-65
2022/02/04 14:10:32;;;;;;;6.62;4.00;;;;;;;0.94;42.91;100079.08;1723346;83;21054;-65
2022/02/04 14:13:03;;;;;;;8.10;3.65;;;;;;;0.71;43.00;100080.78;1731557;81;21038;-65
2022/02/04 14:15:33;;;;;;;10.03;4.45;;;;;;;0.60;47.19;100077.74;1750771;80;21480;-65
2022/02/04 14:18:07;;;;;;;6.60;3.75;;;;;;;0.48;48.16;100090.64;1723172;83;21645;-66
2022/02/04 14:20:30;;;;;;;7.78;4.15;;;;;;;0.33;45.73;100084.13;1723006;83;21630;-66
2022/02/04 14:22:57;;;;;;;7.53;3.85;;;;;;;0.14;50.32;100089.67;1723491;82;21059;-68
2022/02/04 14:25:23;;;;;;;8.40;4.17;;;;;;;-0.07;47.26;100090.40;1724153;82;21031;-65
2022/02/04 14:27:54;;;;;;;7.45;4.30;;;;;;;-0.31;46.28;100099.75;1723645;83;21506;-67
2022/02/04 14:30:24;;;;;;;7.45;4.17;;;;;;;-0.50;53.24;100103.95;1732384;81;21019;-65
2022/02/04 14:32:56;;;;;;;7.87;3.33;;;;;;;-0.59;49.74;100100.43;1739246;81;21038;-66
2022/02/04 14:51:54;;;;;;;8.23;3.90;;;;;;;-1.49;57.42;100125.84;1643410;85;21081;-67
2022/02/04 14:54:25;;;;;;;8.60;3.85;;;;;;;-1.64;53.88;100126.50;1712379;81;21562;-68
2022/02/04 15:00:05;;;;;;;11.95;4.40;;;;;;;-1.90;55.64;100129.62;1727285;81;21039;-67
2022/02/04 15:01:56;;;;;;;9.28;5.10;;;;;;;-2.01;56.00;100127.31;1738968;81;21250;-67
2022/02/04 15:06:59;;;;;;;10.43;5.47;;;;;;;-2.17;61.48;100134.39;1722938;81;21090;-67
2022/02/04 15:09:22;;;;;;;11.00;6.17;;;;;;;-2.27;57.62;100142.86;1726667;81;21105;-67
2022/02/04 15:11:48;;;;;;;10.85;5.95;;;;;;;-2.42;55.97;100137.88;1711125;79;21303;-74
2022/02/04 15:14:18;;;;;;;12.35;5.78;;;;;;;-2.57;55.46;100144.97;1707732;82;21064;-74
2022/02/04 15:16:44;;;;;;;12.58;5.90;;;;;;;-2.71;55.07;100152.01;1702341;84;21067;-73
2022/02/04 15:19:11;;;;;;;11.08;6.45;;;;;;;-2.85;55.28;100149.19;1704080;82;21152;-74
2022/02/04 15:21:41;;;;;;;12.80;6.40;;;;;;;-3.02;55.97;100154.06;1701711;84;21035;-73
2022/02/04 15:24:09;;;;;;;12.37;6.25;;;;;;;-3.14;56.17;100164.14;1682032;85;21116;-74
2022/02/04 15:26:37;;;;;;;13.00;6.33;;;;;;;-3.30;56.44;100168.99;1685034;84;21479;-74
2022/02/04 15:29:10;;;;;;;12.03;6.45;;;;;;;-3.43;56.59;100163.14;1721585;82;21112;-74
2022/02/04 15:31:40;;;;;;;15.13;7.00;;;;;;;-3.54;57.01;100163.34;1718200;82;21158;-74
2022/02/04 15:34:01;;;;;;;16.73;7.78;;;;;;;-3.69;57.52;100167.34;1715316;82;21585;-73
2022/02/04 15:36:37;;;;;;;14.85;7.10;;;;;;;-3.82;57.95;100161.08;1729752;82;21637;-73
2022/02/04 15:38:58;;;;;;;18.30;8.73;;;;;;;-3.94;58.40;100156.94;1691911;84;21076;-73
2022/02/04 15:41:27;;;;;;;24.90;11.50;;;;;;;-4.07;58.78;100163.53;1731615;82;21384;-73
2022/02/04 15:43:58;;;;;;;36.70;16.73;;;;;;;-4.19;59.37;100168.80;1695225;82;21351;-73
2022/02/04 15:49:19;;;;;;;38.17;16.97;;;;;;;-4.44;60.16;100163.96;1740788;81;21077;-73
2022/02/04 15:51:47;;;;;;;34.23;13.48;;;;;;;-4.56;60.55;100166.22;1771029;81;21050;-74
2022/02/04 15:56:57;;;;;;;25.57;11.67;;;;;;;-4.75;61.89;100162.75;1737412;82;22335;-74
2022/02/04 16:02:05;;;;;;;20.37;9.30;;;;;;;-4.93;64.10;100175.56;1711190;83;21078;-73
2022/02/04 16:06:29;;;;;;;23.07;12.20;;;;;;;-5.05;65.08;100167.55;1806242;79;22690;-74
2022/02/04 16:08:57;;;;;;;19.53;9.70;;;;;;;-5.18;65.38;100167.62;1781722;80;21242;-75
2022/02/04 16:11:35;;;;;;;28.73;13.27;;;;;;;-5.21;68.09;100170.53;1781534;80;21527;-75
2022/02/04 16:14:15;;;;;;;23.77;10.00;;;;;;;-5.28;68.19;100180.63;1769252;80;21044;-75
2022/02/04 16:16:42;;;;;;;21.67;9.97;;;;;;;-5.35;68.65;100172.30;1772126;80;21068;-74
2022/02/04 16:19:27;;;;;;;24.87;12.00;;;;;;;-5.43;69.14;100171.20;1783444;80;21049;-74
2022/02/04 16:26:52;;;;;;;11.53;6.10;;;;;;;-5.60;70.88;100169.45;1751602;80;21081;-73
2022/02/04 16:29:16;;;;;;;28.17;13.93;;;;;;;-5.71;70.77;100161.44;1755463;81;21108;-74
2022/02/04 16:31:43;;;;;;;27.27;13.73;;;;;;;-5.74;70.37;100176.75;1756409;81;21552;-75
2022/02/04 16:34:10;;;;;;;29.37;14.53;;;;;;;-5.84;69.98;100182.45;1756255;81;21085;-74
2022/02/04 16:36:42;;;;;;;19.13;9.83;;;;;;;-5.93;69.77;100174.48;1755352;80;22398;-74
2022/02/04 16:39:09;;;;;;;15.43;7.77;;;;;;;-6.02;69.83;100183.22;1754129;81;21024;-73
2022/02/04 16:41:54;;;;;;;13.27;6.93;;;;;;;-6.08;69.60;100185.58;1717703;83;21088;-73
2022/02/04 16:44:19;;;;;;;14.47;7.23;;;;;;;-6.18;69.91;100185.72;1715733;83;21050;-74
2022/02/04 16:46:46;;;;;;;43.00;18.30;;;;;;;-6.28;70.98;100188.80;1712194;83;21560;-74
2022/02/04 16:49:13;;;;;;;14.77;7.90;;;;;;;-6.33;71.11;100191.21;1689016;84;21171;-74
2022/02/04 16:51:40;;;;;;;14.60;7.27;;;;;;;-6.34;73.46;100195.47;1684501;84;21075;-75
2022/02/04 16:54:07;;;;;;;37.13;14.93;;;;;;;-6.37;73.66;100197.09;1696982;84;21014;-74
2022/02/04 16:56:34;;;;;;;17.10;8.73;;;;;;;-6.40;73.79;100205.52;1723135;83;21029;-74
2022/02/04 16:59:00;;;;;;;17.57;7.67;;;;;;;-6.42;75.48;100201.16;1715549;83;21072;-74
2022/02/04 17:01:28;;;;;;;15.27;6.43;;;;;;;-6.45;75.27;100195.95;1701643;83;21117;-74
2022/02/04 17:03:54;;;;;;;13.57;6.80;;;;;;;-6.52;75.09;100197.86;1702062;84;21030;-74
2022/02/04 17:06:21;;;;;;;36.67;14.83;;;;;;;-6.63;74.46;100198.77;1695922;84;21039;-74
2022/02/04 17:08:59;;;;;;;13.47;7.27;;;;;;;-6.72;74.04;100194.21;1660487;86;21085;-73
2022/02/04 17:11:22;;;;;;;;;;;;;;;-6.77;75.18;100200.88;1641040;85;21108;-74